sensor_id;sensor_type;location;lat;lon;timestamp;temperature;humidity
19348;DHT22;9810;52.480;9.806;2022-11-20T00:01:40;-1.70;99.90
19348;DHT22;9810;52.480;9.806;2022-11-20T00:04:09;-1.60;99.90
19348;DHT22;9810;52.480;9.806;2022-11-20T00:06:39;-1.50;99.90
19348;DHT22;9810;52.480;9.806;2022-11-20T00:09:06;-1.60;99.90
19348;DHT22;9810;52.480;9.806;2022-11-20T00:11:34;-1.70;99.90
19348;DHT22;9810;52.480;9.806;2022-11-20T00:14:02;-1.40;99.90
19348;DHT22;9810;52.480;9.806;2022-11-20T00:16:32;-1.40;99.90
19348;DHT22;9810;52.480;9.806;2022-11-20T00:19:00;-1.70;99.90
19348;DHT22;9810;52.480;9.806;2022-11-20T00:21:28;-1.50;99.90
19348;DHT22;9810;52.480;9.806;2022-11-20T00:23:57;-1.50;99.90
19348;DHT22;9810;52.480;9.806;2022-11-20T00:26:26;-1.70;99.90
19348;DHT22;9810;52.480;9.806;2022-11-20T00:28:54;-1.40;99.90
19348;DHT22;9810;52.480;9.806;2022-11-20T00:31:22;-1.40;99.90
19348;DHT22;9810;52.480;9.806;2022-11-20T00:33:50;-1.30;99.90
19348;DHT22;9810;52.480;9.806;2022-11-20T00:36:18;-1.30;99.90
19348;DHT22;9810;52.480;9.806;2022-11-20T00:38:46;-1.40;99.90
19348;DHT22;9810;52.480;9.806;2022-11-20T00:41:15;-1.30;99.90
19348;DHT22;9810;52.480;9.806;2022-11-20T00:43:43;-1.20;99.90
19348;DHT22;9810;52.480;9.806;2022-11-20T00:46:13;-1.30;99.90
19348;DHT22;9810;52.480;9.806;2022-11-20T00:48:40;-1.30;99.90
19348;DHT22;9810;52.480;9.806;2022-11-20T00:51:12;-1.30;99.90
19348;DHT22;9810;52.480;9.806;2022-11-20T00:53:40;-1.40;99.90
19348;DHT22;9810;52.480;9.806;2022-11-20T00:56:10;-1.30;99.90
19348;DHT22;9810;52.480;9.806;2022-11-20T00:58:40;-1.30;99.90
19348;DHT22;9810;52.480;9.806;2022-11-20T01:01:10;-1.40;99.90
19348;DHT22;9810;52.480;9.806;2022-11-20T01:03:39;-1.40;99.90
19348;DHT22;9810;52.480;9.806;2022-11-20T01:06:09;-1.60;99.90
19348;DHT22;9810;52.480;9.806;2022-11-20T01:08:36;-1.90;99.90
19348;DHT22;9810;52.480;9.806;2022-11-20T01:11:06;-2.00;99.90
19348;DHT22;9810;52.480;9.806;2022-11-20T01:13:34;-1.90;99.90
19348;DHT22;9810;52.480;9.806;2022-11-20T01:16:07;-2.20;99.90
19348;DHT22;9810;52.480;9.806;2022-11-20T01:18:36;-2.40;99.90
19348;DHT22;9810;52.480;9.806;2022-11-20T01:21:05;-2.50;99.90
19348;DHT22;9810;52.480;9.806;2022-11-20T01:23:33;-2.20;99.90
19348;DHT22;9810;52.480;9.806;2022-11-20T01:26:02;-1.90;99.90
19348;DHT22;9810;52.480;9.806;2022-11-20T01:28:29;-2.20;99.90
19348;DHT22;9810;52.480;9.806;2022-11-20T01:30:57;-2.10;99.90
19348;DHT22;9810;52.480;9.806;2022-11-20T01:33:26;-2.20;99.90
19348;DHT22;9810;52.480;9.806;2022-11-20T01:36:02;-2.00;99.90
19348;DHT22;9810;52.480;9.806;2022-11-20T01:38:29;-1.80;99.90
19348;DHT22;9810;52.480;9.806;2022-11-20T01:40:57;-1.70;99.90
19348;DHT22;9810;52.480;9.806;2022-11-20T01:43:24;-1.70;99.90
19348;DHT22;9810;52.480;9.806;2022-11-20T01:46:01;-1.90;99.90
19348;DHT22;9810;52.480;9.806;2022-11-20T01:48:35;-2.10;99.90
19348;DHT22;9810;52.480;9.806;2022-11-20T01:51:04;-2.40;99.90
19348;DHT22;9810;52.480;9.806;2022-11-20T01:53:36;-2.40;99.90
19348;DHT22;9810;52.480;9.806;2022-11-20T01:56:07;-2.20;99.90
19348;DHT22;9810;52.480;9.806;2022-11-20T01:58:40;-2.40;99.90
19348;DHT22;9810;52.480;9.806;2022-11-20T02:01:08;-2.20;99.90
19348;DHT22;9810;52.480;9.806;2022-11-20T02:03:37;-2.20;99.90
19348;DHT22;9810;52.480;9.806;2022-11-20T02:06:10;-2.40;99.90
19348;DHT22;9810;52.480;9.806;2022-11-20T02:08:39;-2.40;99.90
19348;DHT22;9810;52.480;9.806;2022-11-20T02:11:06;-2.10;99.90
19348;DHT22;9810;52.480;9.806;2022-11-20T02:13:34;-1.80;99.90
19348;DHT22;9810;52.480;9.806;2022-11-20T02:16:11;-1.80;99.90
19348;DHT22;9810;52.480;9.806;2022-11-20T02:18:41;-2.00;99.90
19348;DHT22;9810;52.480;9.806;2022-11-20T02:21:21;-1.80;99.90
19348;DHT22;9810;52.480;9.806;2022-11-20T02:24:00;-1.70;99.90
19348;DHT22;9810;52.480;9.806;2022-11-20T02:26:31;-1.80;99.90
19348;DHT22;9810;52.480;9.806;2022-11-20T02:28:59;-1.90;99.90
19348;DHT22;9810;52.480;9.806;2022-11-20T02:31:28;-1.80;99.90
19348;DHT22;9810;52.480;9.806;2022-11-20T02:33:56;-1.70;99.90
19348;DHT22;9810;52.480;9.806;2022-11-20T02:36:26;-1.50;99.90
19348;DHT22;9810;52.480;9.806;2022-11-20T02:38:53;-1.50;99.90
19348;DHT22;9810;52.480;9.806;2022-11-20T02:41:31;-1.50;99.90
19348;DHT22;9810;52.480;9.806;2022-11-20T02:43:58;-1.40;99.90
19348;DHT22;9810;52.480;9.806;2022-11-20T02:46:26;-1.40;99.90
19348;DHT22;9810;52.480;9.806;2022-11-20T02:48:53;-1.50;99.90
19348;DHT22;9810;52.480;9.806;2022-11-20T02:51:20;-1.40;99.90
19348;DHT22;9810;52.480;9.806;2022-11-20T02:53:47;-1.30;99.90
19348;DHT22;9810;52.480;9.806;2022-11-20T02:56:15;-1.40;99.90
19348;DHT22;9810;52.480;9.806;2022-11-20T02:58:44;-1.50;99.90
19348;DHT22;9810;52.480;9.806;2022-11-20T03:01:11;-1.40;99.90
19348;DHT22;9810;52.480;9.806;2022-11-20T03:03:39;-1.30;99.90
19348;DHT22;9810;52.480;9.806;2022-11-20T03:06:06;-1.30;99.90
19348;DHT22;9810;52.480;9.806;2022-11-20T03:08:34;-1.60;99.90
19348;DHT22;9810;52.480;9.806;2022-11-20T03:11:03;-1.80;99.90
19348;DHT22;9810;52.480;9.806;2022-11-20T03:13:31;-1.90;99.90
19348;DHT22;9810;52.480;9.806;2022-11-20T03:16:08;-1.80;99.90
19348;DHT22;9810;52.480;9.806;2022-11-20T03:18:36;-1.60;99.90
19348;DHT22;9810;52.480;9.806;2022-11-20T03:21:03;-1.50;99.90
19348;DHT22;9810;52.480;9.806;2022-11-20T03:23:31;-1.50;99.90
19348;DHT22;9810;52.480;9.806;2022-11-20T03:26:10;-1.40;99.90
19348;DHT22;9810;52.480;9.806;2022-11-20T03:28:39;-1.20;99.90
19348;DHT22;9810;52.480;9.806;2022-11-20T03:31:15;-1.10;99.90
19348;DHT22;9810;52.480;9.806;2022-11-20T03:33:43;-1.00;99.90
19348;DHT22;9810;52.480;9.806;2022-11-20T03:36:13;-1.10;99.90
19348;DHT22;9810;52.480;9.806;2022-11-20T03:38:41;-1.30;99.90
19348;DHT22;9810;52.480;9.806;2022-11-20T03:41:11;-1.50;99.90
19348;DHT22;9810;52.480;9.806;2022-11-20T03:43:38;-1.60;99.90
19348;DHT22;9810;52.480;9.806;2022-11-20T03:46:07;-1.30;99.90
19348;DHT22;9810;52.480;9.806;2022-11-20T03:48:36;-1.30;99.90
19348;DHT22;9810;52.480;9.806;2022-11-20T03:51:11;-1.40;99.90
19348;DHT22;9810;52.480;9.806;2022-11-20T03:53:38;-1.40;99.90
19348;DHT22;9810;52.480;9.806;2022-11-20T03:56:06;-1.40;99.90
19348;DHT22;9810;52.480;9.806;2022-11-20T03:58:35;-1.50;99.90
19348;DHT22;9810;52.480;9.806;2022-11-20T04:01:06;-1.50;99.90
19348;DHT22;9810;52.480;9.806;2022-11-20T04:03:36;-1.50;99.90
19348;DHT22;9810;52.480;9.806;2022-11-20T04:06:05;-1.20;99.90
19348;DHT22;9810;52.480;9.806;2022-11-20T04:08:33;-1.40;99.90
19348;DHT22;9810;52.480;9.806;2022-11-20T04:11:11;-1.40;99.90
19348;DHT22;9810;52.480;9.806;2022-11-20T04:13:38;-1.60;99.90
19348;DHT22;9810;52.480;9.806;2022-11-20T04:16:07;-1.40;99.90
19348;DHT22;9810;52.480;9.806;2022-11-20T04:18:37;-1.20;99.90
19348;DHT22;9810;52.480;9.806;2022-11-20T04:21:05;-1.00;99.90
19348;DHT22;9810;52.480;9.806;2022-11-20T04:23:32;-1.00;99.90
19348;DHT22;9810;52.480;9.806;2022-11-20T04:26:03;-0.80;99.90
19348;DHT22;9810;52.480;9.806;2022-11-20T04:28:31;-0.70;99.90
19348;DHT22;9810;52.480;9.806;2022-11-20T04:31:03;-0.60;99.90
19348;DHT22;9810;52.480;9.806;2022-11-20T04:33:30;-0.60;99.90
19348;DHT22;9810;52.480;9.806;2022-11-20T04:36:02;-0.80;99.90
19348;DHT22;9810;52.480;9.806;2022-11-20T04:38:29;-0.70;99.90
19348;DHT22;9810;52.480;9.806;2022-11-20T04:40:58;-0.60;99.90
19348;DHT22;9810;52.480;9.806;2022-11-20T04:43:25;-0.60;99.90
19348;DHT22;9810;52.480;9.806;2022-11-20T04:45:54;-0.50;99.90
19348;DHT22;9810;52.480;9.806;2022-11-20T04:48:22;-0.50;99.90
19348;DHT22;9810;52.480;9.806;2022-11-20T04:50:50;-0.40;99.90
19348;DHT22;9810;52.480;9.806;2022-11-20T04:53:20;-0.40;99.90
19348;DHT22;9810;52.480;9.806;2022-11-20T04:55:48;-0.40;99.90
19348;DHT22;9810;52.480;9.806;2022-11-20T04:58:16;-0.40;99.90
19348;DHT22;9810;52.480;9.806;2022-11-20T05:00:43;-0.40;99.90
19348;DHT22;9810;52.480;9.806;2022-11-20T05:03:10;-0.40;99.90
19348;DHT22;9810;52.480;9.806;2022-11-20T05:05:38;-0.30;99.90
19348;DHT22;9810;52.480;9.806;2022-11-20T05:08:05;-0.30;99.90
19348;DHT22;9810;52.480;9.806;2022-11-20T05:10:34;-0.30;99.90
19348;DHT22;9810;52.480;9.806;2022-11-20T05:13:01;-0.30;99.90
19348;DHT22;9810;52.480;9.806;2022-11-20T05:15:28;-0.30;99.90
19348;DHT22;9810;52.480;9.806;2022-11-20T05:17:56;-0.20;99.90
19348;DHT22;9810;52.480;9.806;2022-11-20T05:20:23;-0.40;99.90
19348;DHT22;9810;52.480;9.806;2022-11-20T05:22:50;-0.40;99.90
19348;DHT22;9810;52.480;9.806;2022-11-20T05:25:17;-0.50;99.90
19348;DHT22;9810;52.480;9.806;2022-11-20T05:27:46;-0.50;99.90
19348;DHT22;9810;52.480;9.806;2022-11-20T05:30:14;-0.50;99.90
19348;DHT22;9810;52.480;9.806;2022-11-20T05:32:42;-0.60;99.90
19348;DHT22;9810;52.480;9.806;2022-11-20T05:35:09;-0.60;99.90
19348;DHT22;9810;52.480;9.806;2022-11-20T05:37:36;-0.80;99.90
19348;DHT22;9810;52.480;9.806;2022-11-20T05:40:05;-0.60;99.90
19348;DHT22;9810;52.480;9.806;2022-11-20T05:42:32;-0.40;99.90
19348;DHT22;9810;52.480;9.806;2022-11-20T05:45:02;-0.30;99.90
19348;DHT22;9810;52.480;9.806;2022-11-20T05:47:32;-0.20;99.90
19348;DHT22;9810;52.480;9.806;2022-11-20T05:50:00;-0.20;99.90
19348;DHT22;9810;52.480;9.806;2022-11-20T05:52:28;-0.20;99.90
19348;DHT22;9810;52.480;9.806;2022-11-20T05:54:56;-0.20;99.90
19348;DHT22;9810;52.480;9.806;2022-11-20T05:57:24;-0.30;99.90
19348;DHT22;9810;52.480;9.806;2022-11-20T05:59:51;-0.20;99.90
19348;DHT22;9810;52.480;9.806;2022-11-20T06:02:20;-0.30;99.90
19348;DHT22;9810;52.480;9.806;2022-11-20T06:04:48;-0.50;99.90
19348;DHT22;9810;52.480;9.806;2022-11-20T06:07:15;-0.50;99.90
19348;DHT22;9810;52.480;9.806;2022-11-20T06:09:42;-0.70;99.90
19348;DHT22;9810;52.480;9.806;2022-11-20T06:12:10;-0.60;99.90
19348;DHT22;9810;52.480;9.806;2022-11-20T06:14:37;-0.40;99.90
19348;DHT22;9810;52.480;9.806;2022-11-20T06:17:04;-0.40;99.90
19348;DHT22;9810;52.480;9.806;2022-11-20T06:19:33;-0.50;99.90
19348;DHT22;9810;52.480;9.806;2022-11-20T06:22:00;-0.60;99.90
19348;DHT22;9810;52.480;9.806;2022-11-20T06:24:28;-0.50;99.90
19348;DHT22;9810;52.480;9.806;2022-11-20T06:26:55;-0.30;99.90
19348;DHT22;9810;52.480;9.806;2022-11-20T06:29:22;-0.30;99.90
19348;DHT22;9810;52.480;9.806;2022-11-20T06:31:49;-0.30;99.90
19348;DHT22;9810;52.480;9.806;2022-11-20T06:34:17;-0.20;99.90
19348;DHT22;9810;52.480;9.806;2022-11-20T06:36:46;-0.20;99.90
19348;DHT22;9810;52.480;9.806;2022-11-20T06:39:13;-0.10;99.90
19348;DHT22;9810;52.480;9.806;2022-11-20T06:41:40;-0.30;99.90
19348;DHT22;9810;52.480;9.806;2022-11-20T06:44:08;-0.30;99.90
19348;DHT22;9810;52.480;9.806;2022-11-20T06:46:35;-0.30;99.90
19348;DHT22;9810;52.480;9.806;2022-11-20T06:49:02;-0.30;99.90
19348;DHT22;9810;52.480;9.806;2022-11-20T06:51:30;-0.30;99.90
19348;DHT22;9810;52.480;9.806;2022-11-20T06:53:59;-0.30;99.90
19348;DHT22;9810;52.480;9.806;2022-11-20T06:56:26;-0.30;99.90
19348;DHT22;9810;52.480;9.806;2022-11-20T06:58:54;-0.40;99.90
19348;DHT22;9810;52.480;9.806;2022-11-20T07:01:21;-0.40;99.90
19348;DHT22;9810;52.480;9.806;2022-11-20T07:03:49;-0.30;99.90
19348;DHT22;9810;52.480;9.806;2022-11-20T07:06:16;-0.30;99.90
19348;DHT22;9810;52.480;9.806;2022-11-20T07:08:44;-0.30;99.90
19348;DHT22;9810;52.480;9.806;2022-11-20T07:11:14;-0.30;99.90
19348;DHT22;9810;52.480;9.806;2022-11-20T07:13:41;-0.30;99.90
19348;DHT22;9810;52.480;9.806;2022-11-20T07:16:08;-0.20;99.90
19348;DHT22;9810;52.480;9.806;2022-11-20T07:18:36;-0.20;99.90
19348;DHT22;9810;52.480;9.806;2022-11-20T07:21:05;-0.50;99.90
19348;DHT22;9810;52.480;9.806;2022-11-20T07:23:33;-0.50;99.90
19348;DHT22;9810;52.480;9.806;2022-11-20T07:26:03;-0.30;99.90
19348;DHT22;9810;52.480;9.806;2022-11-20T07:28:32;-0.30;99.90
19348;DHT22;9810;52.480;9.806;2022-11-20T07:31:00;-0.20;99.90
19348;DHT22;9810;52.480;9.806;2022-11-20T07:33:27;-0.10;99.90
19348;DHT22;9810;52.480;9.806;2022-11-20T07:35:55;0.00;99.90
19348;DHT22;9810;52.480;9.806;2022-11-20T07:38:22;-0.10;99.90
19348;DHT22;9810;52.480;9.806;2022-11-20T07:40:53;-0.10;99.90
19348;DHT22;9810;52.480;9.806;2022-11-20T07:43:21;-0.10;99.90
19348;DHT22;9810;52.480;9.806;2022-11-20T07:45:50;-0.10;99.90
19348;DHT22;9810;52.480;9.806;2022-11-20T07:48:18;0.00;99.90
19348;DHT22;9810;52.480;9.806;2022-11-20T07:50:45;-0.10;99.90
19348;DHT22;9810;52.480;9.806;2022-11-20T07:53:12;0.00;99.90
19348;DHT22;9810;52.480;9.806;2022-11-20T07:55:39;-0.10;99.90
19348;DHT22;9810;52.480;9.806;2022-11-20T07:58:07;0.00;99.90
19348;DHT22;9810;52.480;9.806;2022-11-20T08:00:34;0.00;99.90
19348;DHT22;9810;52.480;9.806;2022-11-20T08:03:04;0.00;99.90
19348;DHT22;9810;52.480;9.806;2022-11-20T08:05:32;0.00;99.90
19348;DHT22;9810;52.480;9.806;2022-11-20T08:08:00;0.00;99.90
19348;DHT22;9810;52.480;9.806;2022-11-20T08:10:27;-0.10;99.90
19348;DHT22;9810;52.480;9.806;2022-11-20T08:12:54;0.00;99.90
19348;DHT22;9810;52.480;9.806;2022-11-20T08:15:39;-0.10;99.90
19348;DHT22;9810;52.480;9.806;2022-11-20T08:18:10;0.10;99.90
19348;DHT22;9810;52.480;9.806;2022-11-20T08:20:38;0.20;99.90
19348;DHT22;9810;52.480;9.806;2022-11-20T08:23:08;0.30;99.90
19348;DHT22;9810;52.480;9.806;2022-11-20T08:25:37;0.30;99.90
19348;DHT22;9810;52.480;9.806;2022-11-20T08:28:06;0.30;99.90
19348;DHT22;9810;52.480;9.806;2022-11-20T08:30:34;0.30;99.90
19348;DHT22;9810;52.480;9.806;2022-11-20T08:33:03;0.40;99.90
19348;DHT22;9810;52.480;9.806;2022-11-20T08:35:34;0.40;99.90
19348;DHT22;9810;52.480;9.806;2022-11-20T08:38:02;0.30;99.90
19348;DHT22;9810;52.480;9.806;2022-11-20T08:40:29;0.30;99.90
19348;DHT22;9810;52.480;9.806;2022-11-20T08:42:57;0.30;99.90
19348;DHT22;9810;52.480;9.806;2022-11-20T08:45:25;0.40;99.90
19348;DHT22;9810;52.480;9.806;2022-11-20T08:47:52;0.30;99.90
19348;DHT22;9810;52.480;9.806;2022-11-20T08:50:19;0.50;99.90
19348;DHT22;9810;52.480;9.806;2022-11-20T08:52:48;0.50;99.90
19348;DHT22;9810;52.480;9.806;2022-11-20T08:55:16;0.60;99.90
19348;DHT22;9810;52.480;9.806;2022-11-20T08:57:43;0.70;99.90
19348;DHT22;9810;52.480;9.806;2022-11-20T09:00:11;0.70;99.90
19348;DHT22;9810;52.480;9.806;2022-11-20T09:02:39;0.60;99.90
19348;DHT22;9810;52.480;9.806;2022-11-20T09:05:07;0.60;99.90
19348;DHT22;9810;52.480;9.806;2022-11-20T09:07:34;0.60;99.90
19348;DHT22;9810;52.480;9.806;2022-11-20T09:10:03;0.60;99.90
19348;DHT22;9810;52.480;9.806;2022-11-20T09:12:31;0.60;99.90
19348;DHT22;9810;52.480;9.806;2022-11-20T09:14:58;0.60;99.90
19348;DHT22;9810;52.480;9.806;2022-11-20T09:17:26;0.70;99.90
19348;DHT22;9810;52.480;9.806;2022-11-20T09:19:53;0.90;99.90
19348;DHT22;9810;52.480;9.806;2022-11-20T09:22:20;1.10;99.90
19348;DHT22;9810;52.480;9.806;2022-11-20T09:24:47;1.30;99.90
19348;DHT22;9810;52.480;9.806;2022-11-20T09:27:17;1.40;99.90
19348;DHT22;9810;52.480;9.806;2022-11-20T09:29:47;1.60;99.90
19348;DHT22;9810;52.480;9.806;2022-11-20T09:32:14;1.80;99.90
19348;DHT22;9810;52.480;9.806;2022-11-20T09:34:41;2.00;99.90
19348;DHT22;9810;52.480;9.806;2022-11-20T09:37:09;2.00;99.90
19348;DHT22;9810;52.480;9.806;2022-11-20T09:39:36;2.20;99.90
19348;DHT22;9810;52.480;9.806;2022-11-20T09:42:25;2.00;99.90
19348;DHT22;9810;52.480;9.806;2022-11-20T09:48:04;1.80;99.90
19348;DHT22;9810;52.480;9.806;2022-11-20T09:50:38;1.70;99.90
19348;DHT22;9810;52.480;9.806;2022-11-20T09:53:19;1.70;99.90
19348;DHT22;9810;52.480;9.806;2022-11-20T09:55:48;1.80;99.90
19348;DHT22;9810;52.480;9.806;2022-11-20T09:58:27;1.80;99.90
19348;DHT22;9810;52.480;9.806;2022-11-20T10:01:03;1.80;99.90
19348;DHT22;9810;52.480;9.806;2022-11-20T10:03:41;1.80;99.90
19348;DHT22;9810;52.480;9.806;2022-11-20T10:06:13;1.70;99.90
19348;DHT22;9810;52.480;9.806;2022-11-20T10:08:45;1.70;99.90
19348;DHT22;9810;52.480;9.806;2022-11-20T10:11:20;1.80;99.90
19348;DHT22;9810;52.480;9.806;2022-11-20T10:13:59;1.90;99.90
19348;DHT22;9810;52.480;9.806;2022-11-20T10:16:38;2.00;99.90
19348;DHT22;9810;52.480;9.806;2022-11-20T10:19:18;1.90;99.90
19348;DHT22;9810;52.480;9.806;2022-11-20T10:21:57;2.10;99.90
19348;DHT22;9810;52.480;9.806;2022-11-20T10:24:44;2.20;99.90
19348;DHT22;9810;52.480;9.806;2022-11-20T10:30:35;2.30;99.90
19348;DHT22;9810;52.480;9.806;2022-11-20T10:33:09;2.30;99.90
19348;DHT22;9810;52.480;9.806;2022-11-20T10:35:42;2.10;99.90
19348;DHT22;9810;52.480;9.806;2022-11-20T10:38:16;2.30;99.90
19348;DHT22;9810;52.480;9.806;2022-11-20T10:40:48;2.40;99.90
19348;DHT22;9810;52.480;9.806;2022-11-20T10:43:19;2.40;99.90
19348;DHT22;9810;52.480;9.806;2022-11-20T10:45:58;2.50;99.90
19348;DHT22;9810;52.480;9.806;2022-11-20T10:48:27;2.50;99.90
19348;DHT22;9810;52.480;9.806;2022-11-20T10:51:03;2.40;99.90
19348;DHT22;9810;52.480;9.806;2022-11-20T10:53:54;2.40;99.90
19348;DHT22;9810;52.480;9.806;2022-11-20T10:56:27;2.50;99.90
19348;DHT22;9810;52.480;9.806;2022-11-20T10:59:28;2.40;99.90
19348;DHT22;9810;52.480;9.806;2022-11-20T11:02:12;2.20;99.90
19348;DHT22;9810;52.480;9.806;2022-11-20T11:04:44;2.30;99.90
19348;DHT22;9810;52.480;9.806;2022-11-20T11:07:16;2.20;99.90
19348;DHT22;9810;52.480;9.806;2022-11-20T11:09:48;2.30;99.90
19348;DHT22;9810;52.480;9.806;2022-11-20T11:12:15;2.40;99.90
19348;DHT22;9810;52.480;9.806;2022-11-20T11:14:45;2.40;99.90
19348;DHT22;9810;52.480;9.806;2022-11-20T11:17:28;2.40;99.90
19348;DHT22;9810;52.480;9.806;2022-11-20T11:20:01;2.40;99.90
19348;DHT22;9810;52.480;9.806;2022-11-20T11:22:29;2.40;99.90
19348;DHT22;9810;52.480;9.806;2022-11-20T11:24:57;2.50;99.90
19348;DHT22;9810;52.480;9.806;2022-11-20T11:27:25;2.50;99.90
19348;DHT22;9810;52.480;9.806;2022-11-20T11:30:12;2.50;99.90
19348;DHT22;9810;52.480;9.806;2022-11-20T11:32:41;2.40;99.90
19348;DHT22;9810;52.480;9.806;2022-11-20T11:35:20;2.40;99.90
19348;DHT22;9810;52.480;9.806;2022-11-20T11:37:48;2.40;99.90
19348;DHT22;9810;52.480;9.806;2022-11-20T11:40:18;2.40;99.90
19348;DHT22;9810;52.480;9.806;2022-11-20T11:42:52;2.10;99.90
19348;DHT22;9810;52.480;9.806;2022-11-20T11:45:21;2.10;99.90
19348;DHT22;9810;52.480;9.806;2022-11-20T11:47:50;2.20;99.90
19348;DHT22;9810;52.480;9.806;2022-11-20T11:50:21;2.10;99.90
19348;DHT22;9810;52.480;9.806;2022-11-20T11:53:06;2.00;99.90
19348;DHT22;9810;52.480;9.806;2022-11-20T11:55:39;2.00;99.90
19348;DHT22;9810;52.480;9.806;2022-11-20T11:58:14;1.90;99.90
19348;DHT22;9810;52.480;9.806;2022-11-20T12:00:49;1.90;99.90
19348;DHT22;9810;52.480;9.806;2022-11-20T12:03:23;1.90;99.90
19348;DHT22;9810;52.480;9.806;2022-11-20T12:05:56;1.90;99.90
19348;DHT22;9810;52.480;9.806;2022-11-20T12:08:29;1.70;99.90
19348;DHT22;9810;52.480;9.806;2022-11-20T12:11:03;1.40;99.90
19348;DHT22;9810;52.480;9.806;2022-11-20T12:13:41;1.40;99.90
19348;DHT22;9810;52.480;9.806;2022-11-20T12:16:13;1.40;99.90
19348;DHT22;9810;52.480;9.806;2022-11-20T12:18:49;1.30;99.90
19348;DHT22;9810;52.480;9.806;2022-11-20T12:21:20;1.50;99.90
19348;DHT22;9810;52.480;9.806;2022-11-20T12:23:58;1.70;99.90
19348;DHT22;9810;52.480;9.806;2022-11-20T12:26:41;1.80;99.90
19348;DHT22;9810;52.480;9.806;2022-11-20T12:29:16;1.80;99.90
19348;DHT22;9810;52.480;9.806;2022-11-20T12:32:01;1.70;99.90
19348;DHT22;9810;52.480;9.806;2022-11-20T12:34:50;1.30;99.90
19348;DHT22;9810;52.480;9.806;2022-11-20T12:37:31;1.10;99.90
19348;DHT22;9810;52.480;9.806;2022-11-20T12:40:09;1.10;99.90
19348;DHT22;9810;52.480;9.806;2022-11-20T12:42:53;1.10;99.90
19348;DHT22;9810;52.480;9.806;2022-11-20T12:49:08;1.20;99.90
19348;DHT22;9810;52.480;9.806;2022-11-20T12:52:01;1.10;99.90
19348;DHT22;9810;52.480;9.806;2022-11-20T12:57:45;1.60;99.90
19348;DHT22;9810;52.480;9.806;2022-11-20T13:00:16;1.30;99.90
19348;DHT22;9810;52.480;9.806;2022-11-20T13:05:51;1.50;99.90
19348;DHT22;9810;52.480;9.806;2022-11-20T13:08:23;1.50;99.90
19348;DHT22;9810;52.480;9.806;2022-11-20T13:10:57;1.50;99.90
19348;DHT22;9810;52.480;9.806;2022-11-20T13:13:33;1.40;99.90
19348;DHT22;9810;52.480;9.806;2022-11-20T13:16:07;1.20;99.90
19348;DHT22;9810;52.480;9.806;2022-11-20T13:18:38;1.00;99.90
19348;DHT22;9810;52.480;9.806;2022-11-20T13:21:15;1.00;99.90
19348;DHT22;9810;52.480;9.806;2022-11-20T13:23:44;1.00;99.90
19348;DHT22;9810;52.480;9.806;2022-11-20T13:26:17;1.10;99.90
19348;DHT22;9810;52.480;9.806;2022-11-20T13:28:46;1.10;99.90
19348;DHT22;9810;52.480;9.806;2022-11-20T13:31:29;1.00;99.90
19348;DHT22;9810;52.480;9.806;2022-11-20T13:33:58;0.90;99.90
19348;DHT22;9810;52.480;9.806;2022-11-20T13:36:26;0.90;99.90
19348;DHT22;9810;52.480;9.806;2022-11-20T13:38:56;1.00;99.90
19348;DHT22;9810;52.480;9.806;2022-11-20T13:41:25;1.20;99.90
19348;DHT22;9810;52.480;9.806;2022-11-20T13:44:10;1.10;99.90
19348;DHT22;9810;52.480;9.806;2022-11-20T13:46:39;1.10;99.90
19348;DHT22;9810;52.480;9.806;2022-11-20T13:49:14;1.10;99.90
19348;DHT22;9810;52.480;9.806;2022-11-20T13:51:44;1.20;99.90
19348;DHT22;9810;52.480;9.806;2022-11-20T13:54:39;1.10;99.90
19348;DHT22;9810;52.480;9.806;2022-11-20T13:57:29;1.10;99.90
19348;DHT22;9810;52.480;9.806;2022-11-20T14:00:16;1.40;99.90
19348;DHT22;9810;52.480;9.806;2022-11-20T14:02:52;1.30;99.90
19348;DHT22;9810;52.480;9.806;2022-11-20T14:05:24;1.10;99.90
19348;DHT22;9810;52.480;9.806;2022-11-20T14:07:52;1.00;99.90
19348;DHT22;9810;52.480;9.806;2022-11-20T14:10:24;1.20;99.90
19348;DHT22;9810;52.480;9.806;2022-11-20T14:12:52;1.50;99.90
19348;DHT22;9810;52.480;9.806;2022-11-20T14:15:28;1.40;99.90
19348;DHT22;9810;52.480;9.806;2022-11-20T14:17:56;1.50;99.90
19348;DHT22;9810;52.480;9.806;2022-11-20T14:20:25;1.50;99.90
19348;DHT22;9810;52.480;9.806;2022-11-20T14:22:54;1.50;99.90
19348;DHT22;9810;52.480;9.806;2022-11-20T14:25:24;1.60;99.90
19348;DHT22;9810;52.480;9.806;2022-11-20T14:27:54;1.70;99.90
19348;DHT22;9810;52.480;9.806;2022-11-20T14:30:24;1.80;99.90
19348;DHT22;9810;52.480;9.806;2022-11-20T14:32:53;1.90;99.90
19348;DHT22;9810;52.480;9.806;2022-11-20T14:35:24;1.60;99.90
19348;DHT22;9810;52.480;9.806;2022-11-20T14:37:52;1.30;99.90
19348;DHT22;9810;52.480;9.806;2022-11-20T14:40:27;1.50;99.90
19348;DHT22;9810;52.480;9.806;2022-11-20T14:42:56;1.50;99.90
19348;DHT22;9810;52.480;9.806;2022-11-20T14:45:25;1.50;99.90
19348;DHT22;9810;52.480;9.806;2022-11-20T14:47:54;1.30;99.90
19348;DHT22;9810;52.480;9.806;2022-11-20T14:50:24;0.70;99.90
19348;DHT22;9810;52.480;9.806;2022-11-20T14:52:52;0.60;99.90
19348;DHT22;9810;52.480;9.806;2022-11-20T14:55:36;0.60;99.90
19348;DHT22;9810;52.480;9.806;2022-11-20T14:58:05;0.80;99.90
19348;DHT22;9810;52.480;9.806;2022-11-20T15:00:34;0.70;99.90
19348;DHT22;9810;52.480;9.806;2022-11-20T15:03:02;0.70;99.90
19348;DHT22;9810;52.480;9.806;2022-11-20T15:05:45;0.50;99.90
19348;DHT22;9810;52.480;9.806;2022-11-20T15:08:13;0.60;99.90
19348;DHT22;9810;52.480;9.806;2022-11-20T15:10:47;0.60;99.90
19348;DHT22;9810;52.480;9.806;2022-11-20T15:13:17;0.70;99.90
19348;DHT22;9810;52.480;9.806;2022-11-20T15:15:48;0.90;99.90
19348;DHT22;9810;52.480;9.806;2022-11-20T15:18:17;1.00;99.90
19348;DHT22;9810;52.480;9.806;2022-11-20T15:20:46;0.90;99.90
19348;DHT22;9810;52.480;9.806;2022-11-20T15:23:15;1.00;99.90
19348;DHT22;9810;52.480;9.806;2022-11-20T15:25:43;0.90;99.90
19348;DHT22;9810;52.480;9.806;2022-11-20T15:28:18;0.50;99.90
19348;DHT22;9810;52.480;9.806;2022-11-20T15:30:46;0.60;99.90
19348;DHT22;9810;52.480;9.806;2022-11-20T15:33:14;0.80;99.90
19348;DHT22;9810;52.480;9.806;2022-11-20T15:35:42;0.80;99.90
19348;DHT22;9810;52.480;9.806;2022-11-20T15:38:09;0.70;99.90
19348;DHT22;9810;52.480;9.806;2022-11-20T15:40:37;0.50;99.90
19348;DHT22;9810;52.480;9.806;2022-11-20T15:43:04;0.50;99.90
19348;DHT22;9810;52.480;9.806;2022-11-20T15:45:38;0.30;99.90
19348;DHT22;9810;52.480;9.806;2022-11-20T15:48:09;0.30;99.90
19348;DHT22;9810;52.480;9.806;2022-11-20T15:50:40;0.60;99.90
19348;DHT22;9810;52.480;9.806;2022-11-20T15:53:10;0.70;99.90
19348;DHT22;9810;52.480;9.806;2022-11-20T15:55:37;0.70;99.90
19348;DHT22;9810;52.480;9.806;2022-11-20T15:58:04;0.60;99.90
19348;DHT22;9810;52.480;9.806;2022-11-20T16:00:32;0.80;99.90
19348;DHT22;9810;52.480;9.806;2022-11-20T16:03:02;1.00;99.90
19348;DHT22;9810;52.480;9.806;2022-11-20T16:05:30;1.00;99.90
19348;DHT22;9810;52.480;9.806;2022-11-20T16:07:57;1.00;99.90
19348;DHT22;9810;52.480;9.806;2022-11-20T16:10:25;1.00;99.90
19348;DHT22;9810;52.480;9.806;2022-11-20T16:12:52;0.70;99.90
19348;DHT22;9810;52.480;9.806;2022-11-20T16:15:36;0.40;99.90
19348;DHT22;9810;52.480;9.806;2022-11-20T16:18:16;0.30;99.90
19348;DHT22;9810;52.480;9.806;2022-11-20T16:20:44;0.20;99.90
19348;DHT22;9810;52.480;9.806;2022-11-20T16:23:11;0.00;99.90
19348;DHT22;9810;52.480;9.806;2022-11-20T16:25:39;-0.10;99.90
19348;DHT22;9810;52.480;9.806;2022-11-20T16:28:06;-0.20;99.90
19348;DHT22;9810;52.480;9.806;2022-11-20T16:30:34;-0.30;99.90
19348;DHT22;9810;52.480;9.806;2022-11-20T16:33:02;-0.30;99.90